Time;durP1;ratioP1;P1;durP2;ratioP2;P2;SDS_P1;SDS_P2;PMS_P1;PMS_P2;Temp;Humidity;BMP_temperature;BMP_pressure;BME280_temperature;BME280_humidity;BME280_pressure;Samples;Min_cycle;Max_cycle;Signal;HPM_P1;HPM_P2
2022/07/17 00:01:14;;;;;;;2.83;2.40;;;;;;;24.35;42.74;95288.81;4978089;28;20223;-67
2022/07/17 00:03:40;;;;;;;3.22;2.67;;;;;;;24.25;42.97;95285.06;4978148;28;20299;-67
2022/07/17 00:06:05;;;;;;;2.72;2.53;;;;;;;24.17;43.26;95286.22;4981086;28;20224;-67
2022/07/17 00:08:31;;;;;;;2.75;2.40;;;;;;;24.20;43.22;95289.25;4972544;28;20286;-67
2022/07/17 00:10:58;;;;;;;5.18;2.50;;;;;;;24.20;43.06;95297.31;4979256;28;20215;-67
2022/07/17 00:13:24;;;;;;;3.58;2.40;;;;;;;24.13;42.92;95301.97;4987416;28;20638;-66
2022/07/17 00:15:50;;;;;;;3.65;2.22;;;;;;;24.06;43.28;95298.56;4982112;28;20254;-66
2022/07/17 00:18:16;;;;;;;2.80;2.47;;;;;;;24.12;42.99;95303.00;4981375;28;20231;-66
2022/07/17 00:20:43;;;;;;;5.07;2.35;;;;;;;23.96;43.33;95298.28;4978042;28;20315;-66
2022/07/17 00:23:09;;;;;;;4.28;2.60;;;;;;;23.90;43.79;95309.97;4975851;28;20215;-67
2022/07/17 00:25:34;;;;;;;3.50;2.55;;;;;;;23.99;43.50;95303.22;4979230;28;20218;-67
2022/07/17 00:28:00;;;;;;;2.28;2.08;;;;;;;23.92;43.67;95302.47;4981445;28;20277;-67
2022/07/17 00:30:25;;;;;;;5.43;2.42;;;;;;;23.91;43.59;95311.59;4987434;28;20222;-67
2022/07/17 00:32:51;;;;;;;4.18;2.20;;;;;;;23.90;43.78;95305.41;4984034;28;20215;-67
2022/07/17 00:35:16;;;;;;;2.35;2.15;;;;;;;23.86;43.74;95306.91;4977234;28;20223;-67
2022/07/17 00:37:46;;;;;;;3.15;2.30;;;;;;;23.82;43.76;95308.41;4975176;28;20216;-67
2022/07/17 00:40:18;;;;;;;3.17;2.60;;;;;;;23.78;43.87;95308.03;4980538;28;20229;-67
2022/07/17 00:42:44;;;;;;;3.05;2.22;;;;;;;23.78;43.85;95307.22;4981524;28;20227;-67
2022/07/17 00:45:11;;;;;;;2.65;2.45;;;;;;;23.74;43.84;95306.03;4977910;28;20243;-67
2022/07/17 00:47:57;;;;;;;3.15;2.40;;;;;;;23.74;43.69;95306.03;4987116;28;20294;-67
2022/07/17 00:50:26;;;;;;;4.00;2.28;;;;;;;23.70;44.17;95312.88;4980488;28;20215;-67
2022/07/17 00:52:52;;;;;;;3.15;2.38;;;;;;;23.79;43.76;95308.88;4977211;28;20703;-66
2022/07/17 00:55:18;;;;;;;2.45;2.20;;;;;;;23.68;43.98;95310.44;4977085;28;20234;-67
2022/07/17 00:57:46;;;;;;;2.53;2.30;;;;;;;23.58;44.20;95323.56;4979070;28;20231;-68
2022/07/17 01:00:13;;;;;;;3.35;2.30;;;;;;;23.66;44.06;95325.94;4978429;28;20305;-67
2022/07/17 01:02:38;;;;;;;5.55;2.45;;;;;;;23.46;44.47;95315.41;4982649;28;20214;-67
2022/07/17 01:05:05;;;;;;;4.60;2.40;;;;;;;23.68;44.01;95321.16;4995795;28;20233;-67
2022/07/17 01:07:30;;;;;;;5.40;2.53;;;;;;;23.53;44.18;95318.03;4981199;28;20199;-67
2022/07/17 01:09:56;;;;;;;4.72;2.42;;;;;;;23.62;43.77;95330.09;4983663;28;20222;-67
2022/07/17 01:12:23;;;;;;;2.30;2.10;;;;;;;23.62;43.78;95340.84;4979420;28;20247;-67
2022/07/17 01:14:49;;;;;;;3.28;2.40;;;;;;;23.45;44.38;95327.22;4980205;28;20334;-69
2022/07/17 01:17:15;;;;;;;5.00;2.42;;;;;;;23.43;44.39;95331.97;4979887;28;20236;-67
2022/07/17 01:19:41;;;;;;;3.25;2.40;;;;;;;23.47;44.13;95332.34;4983968;28;20238;-67
2022/07/17 01:22:06;;;;;;;2.50;2.30;;;;;;;23.60;43.89;95329.50;4983264;28;20463;-67
2022/07/17 01:24:32;;;;;;;3.50;2.03;;;;;;;23.44;43.98;95327.44;4987356;28;20610;-67
2022/07/17 01:26:58;;;;;;;2.85;2.53;;;;;;;23.47;43.70;95338.56;4977371;28;20224;-67
2022/07/17 01:29:23;;;;;;;4.30;2.33;;;;;;;23.49;43.62;95324.88;4980276;28;20227;-67
2022/07/17 01:31:49;;;;;;;2.65;2.45;;;;;;;23.53;43.32;95321.53;4976064;28;20243;-67
2022/07/17 01:34:14;;;;;;;2.50;2.30;;;;;;;23.54;42.96;95325.84;4975837;28;20224;-67
2022/07/17 01:36:41;;;;;;;4.03;2.35;;;;;;;23.48;43.03;95328.63;4974142;28;20235;-67
2022/07/17 01:39:06;;;;;;;2.67;2.47;;;;;;;23.45;43.04;95318.34;4980614;28;20238;-67
2022/07/17 01:41:32;;;;;;;2.28;2.08;;;;;;;23.40;43.24;95321.69;4986721;28;20220;-68
2022/07/17 01:43:58;;;;;;;5.40;2.30;;;;;;;23.36;43.36;95322.34;4988732;28;20298;-67
2022/07/17 01:46:24;;;;;;;2.50;2.30;;;;;;;23.38;42.99;95325.66;4979562;28;20203;-67
2022/07/17 01:48:50;;;;;;;2.70;2.10;;;;;;;23.39;43.06;95333.50;4977774;28;20326;-67
2022/07/17 01:51:16;;;;;;;4.00;1.92;;;;;;;23.32;43.22;95328.19;4982515;28;20231;-67
2022/07/17 01:53:41;;;;;;;2.47;2.28;;;;;;;23.31;43.19;95323.88;4982175;28;20687;-67
2022/07/17 01:56:07;;;;;;;5.07;2.80;;;;;;;23.32;44.38;95317.44;4982442;28;20231;-67
2022/07/17 01:58:33;;;;;;;3.85;2.53;;;;;;;23.46;44.60;95328.84;4983276;28;20271;-67
2022/07/17 02:00:59;;;;;;;3.38;2.40;;;;;;;23.39;45.23;95324.59;4982745;28;20238;-67
2022/07/17 02:03:24;;;;;;;5.10;2.70;;;;;;;23.21;47.23;95328.94;4979113;28;20228;-67
2022/07/17 02:05:50;;;;;;;3.90;2.95;;;;;;;23.13;47.44;95323.03;4976903;28;20232;-67
2022/07/17 02:08:15;;;;;;;2.72;2.47;;;;;;;23.19;47.31;95330.19;4983812;28;20256;-67
2022/07/17 02:10:41;;;;;;;4.53;2.85;;;;;;;23.07;47.58;95338.97;4981599;28;20537;-67
2022/07/17 02:13:06;;;;;;;2.42;2.22;;;;;;;22.94;47.93;95322.19;4987147;28;20258;-67
2022/07/17 02:15:32;;;;;;;5.32;2.35;;;;;;;22.97;47.40;95333.31;4978667;28;20722;-67
2022/07/17 02:17:57;;;;;;;4.35;2.60;;;;;;;22.83;47.79;95339.81;4989606;28;20237;-67
2022/07/17 02:20:24;;;;;;;3.35;3.05;;;;;;;22.78;47.50;95335.09;4984244;28;20297;-67
2022/07/17 02:22:50;;;;;;;2.65;2.45;;;;;;;22.77;46.75;95333.44;4979163;28;20208;-67
2022/07/17 02:25:15;;;;;;;3.92;2.60;;;;;;;22.66;47.40;95336.84;4981135;28;20226;-67
2022/07/17 02:27:41;;;;;;;3.13;2.60;;;;;;;22.66;47.02;95331.47;4983432;28;20235;-67
2022/07/17 02:30:12;;;;;;;6.95;2.40;;;;;;;22.68;46.61;95334.78;4981012;28;20277;-67
2022/07/17 02:32:38;;;;;;;3.22;2.42;;;;;;;22.63;46.73;95332.75;4989128;28;20224;-68
2022/07/17 02:35:05;;;;;;;4.22;2.90;;;;;;;22.53;47.02;95324.38;4982043;28;20208;-67
2022/07/17 02:37:30;;;;;;;3.25;2.83;;;;;;;22.53;46.73;95336.94;4984922;28;20560;-67
2022/07/17 02:39:56;;;;;;;2.50;2.30;;;;;;;22.46;46.87;95332.47;4975551;28;20236;-67
2022/07/17 02:42:26;;;;;;;5.22;3.08;;;;;;;22.42;46.60;95336.63;4981073;28;20238;-67
2022/07/17 02:44:52;;;;;;;3.70;2.40;;;;;;;22.44;46.93;95334.53;4977892;28;20238;-67
2022/07/17 02:47:25;;;;;;;2.70;2.50;;;;;;;22.14;48.54;95339.69;4983476;28;20226;-67
2022/07/17 02:49:51;;;;;;;2.38;2.17;;;;;;;22.15;47.96;95335.13;4991723;28;20207;-67
2022/07/17 02:52:17;;;;;;;3.10;2.40;;;;;;;22.28;47.65;95336.94;4981581;28;20709;-67
2022/07/17 02:54:42;;;;;;;3.15;2.78;;;;;;;22.31;47.54;95348.03;4978694;28;20243;-67
2022/07/17 02:57:08;;;;;;;2.90;2.65;;;;;;;22.14;47.95;95342.34;4980444;28;20310;-67
2022/07/17 02:59:34;;;;;;;2.90;2.63;;;;;;;22.25;47.66;95351.59;4982964;28;20245;-67
2022/07/17 03:01:59;;;;;;;2.85;2.53;;;;;;;22.35;46.96;95349.25;4977884;28;20211;-67
2022/07/17 03:04:25;;;;;;;3.33;2.47;;;;;;;22.24;47.09;95353.44;4986407;28;20202;-67
2022/07/17 03:06:50;;;;;;;3.65;2.40;;;;;;;22.23;47.23;95357.16;4990265;28;20273;-67
2022/07/17 03:09:16;;;;;;;3.20;2.90;;;;;;;22.16;47.26;95356.34;4994014;28;20833;-67
2022/07/17 03:11:41;;;;;;;3.88;2.83;;;;;;;22.27;46.88;95360.25;4985218;28;20227;-67
2022/07/17 03:14:07;;;;;;;3.63;2.75;;;;;;;22.31;46.77;95366.78;4982262;28;20234;-67
2022/07/17 03:16:32;;;;;;;5.40;2.70;;;;;;;22.21;46.88;95366.44;4974168;28;20627;-67
2022/07/17 03:18:57;;;;;;;3.05;2.42;;;;;;;22.12;46.83;95375.75;4979487;28;20625;-67
2022/07/17 03:21:23;;;;;;;5.57;2.83;;;;;;;22.29;46.47;95368.84;4984311;28;20294;-67
2022/07/17 03:23:48;;;;;;;6.63;2.75;;;;;;;22.21;46.17;95375.31;4984364;28;20694;-67
2022/07/17 03:26:14;;;;;;;2.63;2.42;;;;;;;22.18;46.99;95377.56;4984298;28;20246;-67
2022/07/17 03:28:39;;;;;;;2.75;2.55;;;;;;;22.31;45.76;95380.19;4982163;28;20208;-67
2022/07/17 03:31:04;;;;;;;3.22;2.90;;;;;;;22.24;46.60;95368.72;4982785;28;20231;-67
2022/07/17 03:33:30;;;;;;;5.35;2.83;;;;;;;22.17;47.10;95383.97;4983742;28;20227;-67
2022/07/17 03:35:56;;;;;;;4.25;2.85;;;;;;;22.22;46.43;95384.16;4988185;28;20222;-67
2022/07/17 03:38:21;;;;;;;3.28;2.97;;;;;;;22.24;46.84;95374.06;4990149;28;20648;-67
2022/07/17 03:40:47;;;;;;;2.97;2.67;;;;;;;22.17;46.84;95381.28;4990661;28;20228;-67
2022/07/17 03:43:13;;;;;;;3.08;2.72;;;;;;;22.14;46.92;95389.75;4974668;28;20222;-67
2022/07/17 03:45:39;;;;;;;3.63;2.70;;;;;;;22.09;47.17;95384.22;4988043;28;20227;-67
2022/07/17 03:48:05;;;;;;;5.07;2.72;;;;;;;22.13;47.44;95396.13;4979688;28;20239;-67
2022/07/17 03:50:30;;;;;;;5.60;2.70;;;;;;;22.08;47.61;95388.75;4981054;28;20246;-67
2022/07/17 03:52:55;;;;;;;4.57;3.00;;;;;;;22.16;47.11;95391.19;4977626;28;20210;-67
2022/07/17 03:55:21;;;;;;;4.78;2.92;;;;;;;22.07;46.70;95392.44;4985916;28;20227;-67
2022/07/17 03:57:46;;;;;;;3.65;2.88;;;;;;;22.09;46.46;95405.63;4980304;28;20231;-67
2022/07/17 04:00:12;;;;;;;3.17;2.88;;;;;;;22.08;46.54;95410.19;4986148;28;20267;-67
2022/07/17 04:02:38;;;;;;;3.63;2.92;;;;;;;22.12;46.79;95422.09;4980037;28;20216;-67
2022/07/17 04:05:04;;;;;;;6.75;2.80;;;;;;;22.03;47.02;95412.66;4976447;28;20243;-67
2022/07/17 04:07:30;;;;;;;2.97;2.75;;;;;;;22.06;46.35;95422.13;4980052;28;20263;-67
2022/07/17 04:09:57;;;;;;;2.65;2.45;;;;;;;22.19;46.04;95427.47;4976508;28;20227;-67
2022/07/17 04:12:24;;;;;;;3.08;2.80;;;;;;;22.27;45.80;95421.84;4976155;28;20850;-66
2022/07/17 04:14:49;;;;;;;3.10;2.80;;;;;;;22.20;46.47;95416.50;4976936;28;20259;-66
2022/07/17 04:17:15;;;;;;;3.55;2.83;;;;;;;22.32;46.40;95426.53;4979369;28;20248;-66
2022/07/17 04:19:40;;;;;;;4.22;2.80;;;;;;;22.48;45.17;95427.88;4977618;28;20322;-66
2022/07/17 04:22:06;;;;;;;3.78;2.78;;;;;;;22.39;46.10;95430.81;4979236;28;20628;-65
2022/07/17 04:24:31;;;;;;;4.10;3.10;;;;;;;22.53;45.73;95439.59;4977206;28;20227;-66
2022/07/17 04:26:57;;;;;;;4.30;3.00;;;;;;;22.55;46.19;95439.41;4982358;28;20291;-66
2022/07/17 04:29:22;;;;;;;3.70;2.70;;;;;;;22.68;45.39;95436.63;4983910;28;20230;-66
2022/07/17 04:31:48;;;;;;;4.75;2.92;;;;;;;22.61;46.17;95436.69;4978316;28;20271;-65
2022/07/17 04:34:13;;;;;;;3.08;2.88;;;;;;;22.76;45.65;95439.03;4980242;28;20710;-66
2022/07/17 04:36:38;;;;;;;4.22;2.83;;;;;;;22.74;46.04;95435.75;4983111;28;20215;-66
2022/07/17 04:39:04;;;;;;;4.82;2.92;;;;;;;22.72;46.34;95437.84;4978382;28;20220;-66
2022/07/17 04:41:29;;;;;;;5.53;3.40;;;;;;;22.79;46.20;95435.91;4977335;28;20238;-66
2022/07/17 04:43:55;;;;;;;3.83;3.13;;;;;;;22.91;46.25;95446.78;4978487;28;20205;-66
2022/07/17 04:46:20;;;;;;;5.03;3.03;;;;;;;22.94;45.98;95450.88;4978344;28;20209;-66
2022/07/17 04:48:46;;;;;;;4.22;3.08;;;;;;;23.06;46.08;95447.28;4978251;28;20215;-66
2022/07/17 04:51:11;;;;;;;6.57;3.30;;;;;;;23.05;45.66;95442.16;4987301;28;20235;-66
2022/07/17 04:53:37;;;;;;;4.03;2.78;;;;;;;23.17;44.94;95444.94;4984131;28;20307;-67
2022/07/17 04:56:03;;;;;;;3.45;2.72;;;;;;;23.25;44.61;95453.53;4978494;28;20227;-66
2022/07/17 04:58:29;;;;;;;4.72;3.30;;;;;;;23.37;42.98;95458.19;4982278;28;20217;-66
2022/07/17 05:01:20;;;;;;;4.57;2.95;;;;;;;23.28;42.85;95468.34;4980948;28;20224;-66
2022/07/17 05:03:45;;;;;;;5.55;2.90;;;;;;;23.33;42.69;95464.00;4984477;28;20214;-66
2022/07/17 05:06:11;;;;;;;7.25;2.85;;;;;;;23.47;40.91;95471.91;4978999;28;20227;-67
2022/07/17 05:08:36;;;;;;;3.85;2.63;;;;;;;23.41;39.76;95464.75;4982421;28;20275;-67
2022/07/17 05:11:02;;;;;;;4.20;2.80;;;;;;;23.60;39.93;95477.13;4982452;28;20207;-67
2022/07/17 05:13:27;;;;;;;4.88;2.65;;;;;;;23.52;39.44;95480.09;4977778;28;20245;-66
2022/07/17 05:15:53;;;;;;;7.75;3.10;;;;;;;23.45;39.66;95479.38;4975057;28;20229;-67
2022/07/17 05:18:18;;;;;;;4.03;2.83;;;;;;;23.50;38.95;95482.22;4976292;28;20231;-67
2022/07/17 05:20:44;;;;;;;3.15;2.70;;;;;;;23.42;39.36;95471.75;4973363;28;20234;-67
2022/07/17 05:23:09;;;;;;;4.20;2.67;;;;;;;23.36;38.91;95469.94;4983214;28;20239;-67
2022/07/17 05:25:35;;;;;;;3.85;2.50;;;;;;;23.44;38.26;95477.72;4987953;28;20289;-67
2022/07/17 05:28:01;;;;;;;6.15;2.80;;;;;;;23.50;36.77;95479.53;4973964;28;20235;-66
2022/07/17 05:30:27;;;;;;;4.60;2.53;;;;;;;23.51;36.53;95483.84;4986525;28;20223;-68
2022/07/17 05:32:52;;;;;;;3.97;2.53;;;;;;;23.49;36.44;95484.06;4984180;28;20223;-68
2022/07/17 05:35:18;;;;;;;4.13;3.60;;;;;;;23.56;37.41;95478.63;4982201;28;20215;-68
2022/07/17 05:37:43;;;;;;;4.85;3.35;;;;;;;23.57;37.20;95474.91;4980900;28;20226;-68
2022/07/17 05:40:09;;;;;;;3.47;2.80;;;;;;;23.40;37.14;95466.59;4980655;28;20231;-67
2022/07/17 05:42:34;;;;;;;5.70;3.40;;;;;;;23.55;36.87;95475.13;4983597;28;20258;-67
2022/07/17 05:45:00;;;;;;;4.10;2.80;;;;;;;23.64;36.62;95472.97;4985986;28;20218;-67
2022/07/17 05:47:25;;;;;;;5.38;2.90;;;;;;;23.76;36.79;95484.66;4978011;28;20645;-67
2022/07/17 05:49:51;;;;;;;4.93;2.47;;;;;;;23.68;36.31;95474.19;4983218;28;20237;-67
2022/07/17 05:52:17;;;;;;;4.80;3.15;;;;;;;23.81;35.87;95485.84;4987299;28;20230;-67
2022/07/17 05:54:43;;;;;;;7.95;3.10;;;;;;;23.95;35.23;95476.59;4978395;28;20235;-67
2022/07/17 05:57:08;;;;;;;6.00;3.08;;;;;;;23.97;34.49;95479.88;4980900;28;20318;-66
2022/07/17 05:59:34;;;;;;;3.00;2.42;;;;;;;24.01;34.34;95482.97;4982268;28;20270;-65
2022/07/17 06:01:59;;;;;;;2.63;2.30;;;;;;;24.14;34.13;95480.13;4988051;28;20222;-66
2022/07/17 06:04:25;;;;;;;4.35;2.60;;;;;;;24.09;33.96;95483.47;4983055;28;20196;-66
2022/07/17 06:06:50;;;;;;;3.58;2.90;;;;;;;23.99;34.00;95488.53;4980792;28;20220;-66
2022/07/17 06:09:16;;;;;;;3.63;2.80;;;;;;;24.11;34.26;95488.59;4986031;28;20220;-66
2022/07/17 06:11:41;;;;;;;6.00;2.40;;;;;;;24.01;34.58;95483.78;4977934;28;20220;-66
2022/07/17 06:14:07;;;;;;;4.63;2.75;;;;;;;23.98;34.35;95494.97;4991284;28;20231;-66
2022/07/17 06:16:32;;;;;;;3.20;2.65;;;;;;;24.05;34.19;95486.81;4984597;28;20212;-66
2022/07/17 06:18:57;;;;;;;3.00;2.78;;;;;;;23.93;33.87;95490.25;4986737;28;20231;-66
2022/07/17 06:21:23;;;;;;;3.15;2.60;;;;;;;24.02;34.42;95489.97;4981972;28;20230;-65
2022/07/17 06:23:48;;;;;;;3.28;2.97;;;;;;;24.13;34.41;95491.91;4982294;28;20223;-66
2022/07/17 06:26:14;;;;;;;5.13;2.72;;;;;;;24.21;34.73;95488.91;4980088;28;20403;-65
2022/07/17 06:28:39;;;;;;;3.15;2.60;;;;;;;24.28;34.21;95494.22;4980001;28;20203;-65
2022/07/17 06:31:05;;;;;;;3.00;2.70;;;;;;;24.34;34.09;95493.28;4978463;28;20401;-66
2022/07/17 06:33:30;;;;;;;3.45;2.60;;;;;;;24.27;34.14;95493.41;4984060;28;20239;-66
2022/07/17 06:35:56;;;;;;;3.30;2.70;;;;;;;24.09;34.70;95501.47;4990912;28;20231;-66
2022/07/17 06:38:22;;;;;;;3.17;2.83;;;;;;;24.19;34.25;95501.72;4984598;28;20229;-67
2022/07/17 06:40:47;;;;;;;4.65;2.92;;;;;;;24.27;34.49;95492.53;4982192;28;20265;-65
2022/07/17 06:43:12;;;;;;;3.40;2.47;;;;;;;24.33;34.93;95494.34;4984458;28;20307;-64
2022/07/17 06:45:38;;;;;;;3.17;2.75;;;;;;;24.38;35.07;95486.44;4977587;28;20235;-66
2022/07/17 06:48:04;;;;;;;2.90;2.50;;;;;;;24.43;34.86;95490.09;4977599;28;20313;-66
2022/07/17 06:50:29;;;;;;;2.72;2.50;;;;;;;24.47;33.62;95495.84;4978274;28;20236;-67
2022/07/17 06:52:55;;;;;;;2.97;2.70;;;;;;;24.40;33.68;95498.59;4984013;28;20265;-66
2022/07/17 06:55:20;;;;;;;7.25;2.70;;;;;;;24.46;34.12;95486.16;4989194;28;20238;-66
2022/07/17 06:57:46;;;;;;;3.85;2.53;;;;;;;24.54;33.69;95493.91;4985021;28;20232;-64
2022/07/17 07:00:11;;;;;;;3.15;2.60;;;;;;;24.51;34.23;95494.34;4978444;28;20373;-66
2022/07/17 07:02:37;;;;;;;5.32;2.80;;;;;;;24.58;34.36;95492.38;4980471;28;20762;-65
2022/07/17 07:05:04;;;;;;;3.38;2.83;;;;;;;24.55;34.55;95492.03;4977762;28;20276;-65
2022/07/17 07:07:29;;;;;;;3.00;2.78;;;;;;;24.56;34.55;95491.78;4979714;28;20278;-66
2022/07/17 07:09:55;;;;;;;2.90;2.70;;;;;;;24.65;33.91;95490.44;4993082;28;20335;-66
2022/07/17 07:12:20;;;;;;;3.13;2.83;;;;;;;24.63;34.26;95508.66;4980633;28;20300;-66
2022/07/17 07:14:46;;;;;;;5.65;3.10;;;;;;;24.72;33.53;95508.34;4979652;28;20227;-66
2022/07/17 07:17:11;;;;;;;4.57;3.15;;;;;;;24.65;34.27;95505.75;4982146;28;20208;-64
2022/07/17 07:19:37;;;;;;;5.95;3.17;;;;;;;24.71;34.05;95504.00;4976417;28;20275;-66
2022/07/17 07:22:02;;;;;;;3.63;3.20;;;;;;;24.73;35.09;95504.63;4976000;28;20264;-66
2022/07/17 07:24:28;;;;;;;4.13;3.00;;;;;;;24.81;34.06;95499.72;4980076;28;20223;-66
2022/07/17 07:26:53;;;;;;;4.97;2.67;;;;;;;24.71;34.54;95502.13;4979515;28;20258;-66
2022/07/17 07:29:19;;;;;;;3.25;2.60;;;;;;;24.78;33.60;95507.41;4985153;28;20220;-65
2022/07/17 07:31:44;;;;;;;3.63;2.30;;;;;;;24.89;33.76;95503.97;4984042;28;20212;-66
2022/07/17 07:34:10;;;;;;;4.72;3.05;;;;;;;24.95;34.23;95500.34;4982613;28;20227;-66
2022/07/17 07:36:35;;;;;;;5.47;2.70;;;;;;;24.88;34.60;95505.00;4983010;28;20224;-66
2022/07/17 07:39:01;;;;;;;3.15;2.70;;;;;;;24.87;34.63;95514.13;4975782;28;20435;-66
2022/07/17 07:41:26;;;;;;;3.25;2.78;;;;;;;24.95;33.66;95503.03;4981314;28;20769;-65
2022/07/17 07:43:52;;;;;;;3.60;2.70;;;;;;;25.00;34.04;95507.72;4980117;28;21445;-66
2022/07/17 07:46:17;;;;;;;3.72;2.88;;;;;;;25.09;33.54;95509.03;4981568;28;20215;-66
2022/07/17 07:48:42;;;;;;;3.33;2.78;;;;;;;25.18;33.21;95507.69;4982486;28;20224;-65
2022/07/17 07:51:08;;;;;;;3.00;2.70;;;;;;;25.26;33.20;95511.88;4963078;28;20223;-65
2022/07/17 07:53:34;;;;;;;3.13;2.63;;;;;;;25.18;32.75;95501.47;4976762;28;20235;-66
2022/07/17 07:56:00;;;;;;;3.20;2.83;;;;;;;25.15;33.21;95504.59;4982443;28;20331;-65
2022/07/17 07:58:25;;;;;;;3.05;2.70;;;;;;;25.23;33.37;95501.59;4974570;28;20776;-65
2022/07/17 08:00:50;;;;;;;3.28;2.65;;;;;;;25.29;32.98;95508.75;4985275;28;20237;-66
2022/07/17 08:03:17;;;;;;;3.67;3.38;;;;;;;25.34;32.39;95506.19;4990000;28;20291;-66
2022/07/17 08:05:42;;;;;;;3.10;2.70;;;;;;;25.28;32.81;95505.22;4978641;28;20243;-64
2022/07/17 08:08:08;;;;;;;3.92;2.67;;;;;;;25.35;33.12;95504.31;4977006;28;20223;-65
2022/07/17 08:10:34;;;;;;;2.72;2.53;;;;;;;25.50;32.67;95512.75;4983460;28;20230;-62
2022/07/17 08:13:00;;;;;;;4.80;2.67;;;;;;;25.61;31.74;95506.56;4986893;28;20443;-61
2022/07/17 08:15:25;;;;;;;3.33;2.67;;;;;;;25.44;32.46;95503.72;4983156;28;20326;-62
2022/07/17 08:17:52;;;;;;;4.00;2.78;;;;;;;25.56;32.03;95506.44;4976459;28;20338;-61
2022/07/17 08:20:18;;;;;;;3.38;3.03;;;;;;;25.67;31.08;95510.19;4984194;28;20234;-62
2022/07/17 08:22:45;;;;;;;3.70;2.40;;;;;;;25.63;31.47;95507.13;4983375;28;20220;-61
2022/07/17 08:25:11;;;;;;;4.30;2.80;;;;;;;25.71;31.58;95511.34;4961478;28;20255;-61
2022/07/17 08:27:37;;;;;;;2.42;2.22;;;;;;;25.74;31.49;95509.03;4980847;28;20250;-62
2022/07/17 08:30:05;;;;;;;3.05;2.50;;;;;;;25.79;30.99;95508.28;4978260;28;20274;-62
2022/07/17 08:32:30;;;;;;;3.45;2.47;;;;;;;25.78;30.55;95512.06;4976902;28;20227;-61
2022/07/17 08:34:56;;;;;;;3.00;2.70;;;;;;;25.64;30.91;95507.97;4974594;28;20207;-61
2022/07/17 08:37:22;;;;;;;5.28;2.90;;;;;;;25.62;31.59;95510.88;4987433;28;20223;-62
2022/07/17 08:39:47;;;;;;;3.25;2.95;;;;;;;25.78;31.62;95498.59;4983137;28;20483;-62
2022/07/17 08:42:16;;;;;;;5.32;2.80;;;;;;;25.89;31.64;95508.56;4983352;28;20219;-62
2022/07/17 08:44:42;;;;;;;3.47;2.80;;;;;;;25.99;30.24;95515.25;4975050;28;20239;-62
2022/07/17 08:47:10;;;;;;;3.28;2.72;;;;;;;25.90;30.67;95517.44;4977861;28;20263;-62
2022/07/17 08:49:42;;;;;;;4.53;2.58;;;;;;;25.94;30.60;95515.94;4977008;28;20320;-62
2022/07/17 08:52:10;;;;;;;3.05;2.83;;;;;;;26.02;31.20;95512.06;4972138;28;20723;-62
2022/07/17 08:54:36;;;;;;;3.67;3.08;;;;;;;26.02;31.10;95504.81;4982042;28;20223;-62
2022/07/17 08:57:03;;;;;;;5.35;3.05;;;;;;;26.09;30.86;95499.28;4981596;28;20227;-61
2022/07/17 08:59:29;;;;;;;3.05;2.67;;;;;;;26.16;30.17;95503.47;4977332;28;20278;-61
2022/07/17 09:01:54;;;;;;;3.88;2.55;;;;;;;26.17;29.92;95501.63;4974334;28;20204;-61
2022/07/17 09:04:20;;;;;;;3.60;3.20;;;;;;;26.18;30.22;95487.06;4971425;28;20196;-61
2022/07/17 09:06:45;;;;;;;4.40;3.15;;;;;;;26.24;31.10;95486.13;4972738;28;20315;-60
2022/07/17 09:09:13;;;;;;;4.70;2.70;;;;;;;26.29;30.37;95488.09;4977313;28;20231;-61
2022/07/17 09:11:46;;;;;;;2.45;2.28;;;;;;;26.25;30.51;95492.31;4985092;28;20576;-61
2022/07/17 09:14:11;;;;;;;3.28;2.70;;;;;;;26.28;30.32;95492.69;4981361;28;20238;-61
2022/07/17 09:16:56;;;;;;;3.13;2.40;;;;;;;26.48;30.70;95492.25;4982317;28;20224;-62
2022/07/17 09:19:28;;;;;;;2.58;2.30;;;;;;;26.42;29.75;95487.84;4983378;28;20211;-61
2022/07/17 09:22:24;;;;;;;2.70;2.50;;;;;;;26.56;30.10;95488.41;4974828;28;20240;-61
2022/07/17 09:24:57;;;;;;;2.75;2.55;;;;;;;26.54;29.38;95485.13;4938569;28;20674;-61
2022/07/17 09:27:23;;;;;;;6.55;2.60;;;;;;;26.57;29.82;95485.47;4955627;28;20228;-61
2022/07/17 09:30:18;;;;;;;3.42;2.55;;;;;;;26.61;30.09;95485.78;4949630;28;20433;-62
2022/07/17 09:32:43;;;;;;;3.30;3.00;;;;;;;26.69;30.41;95490.81;4885501;29;20231;-61
2022/07/17 09:35:10;;;;;;;2.50;2.30;;;;;;;26.71;30.36;95480.59;4868826;29;20306;-61
2022/07/17 09:37:37;;;;;;;3.40;2.83;;;;;;;26.80;29.73;95481.81;4886060;29;20219;-62
2022/07/17 09:40:11;;;;;;;3.92;2.60;;;;;;;26.64;27.97;95479.09;4868519;29;20239;-61
2022/07/17 09:42:36;;;;;;;3.78;2.63;;;;;;;26.93;29.25;95479.91;4867502;29;20328;-62
2022/07/17 09:45:08;;;;;;;2.85;2.65;;;;;;;27.12;30.44;95484.00;4884173;29;20597;-62
2022/07/17 09:47:39;;;;;;;2.70;2.50;;;;;;;27.16;27.74;95485.16;4869083;29;20234;-62
2022/07/17 09:50:07;;;;;;;3.10;2.80;;;;;;;27.26;28.33;95482.69;4885965;29;20232;-62
2022/07/17 09:52:37;;;;;;;2.83;2.17;;;;;;;27.32;29.00;95483.56;4867707;29;20237;-61
2022/07/17 09:55:03;;;;;;;2.50;2.30;;;;;;;27.55;28.41;95500.66;4883470;29;20230;-61
2022/07/17 09:57:40;;;;;;;2.67;2.47;;;;;;;27.55;26.99;95492.56;4885344;29;20864;-62
2022/07/17 10:00:12;;;;;;;3.05;2.45;;;;;;;27.58;26.63;95487.47;4884041;29;20222;-62
2022/07/17 10:02:40;;;;;;;2.53;2.33;;;;;;;27.53;27.64;95486.56;4889839;29;20297;-62
2022/07/17 10:05:08;;;;;;;2.60;2.40;;;;;;;27.78;27.59;95483.44;4884289;29;20222;-62
2022/07/17 10:07:34;;;;;;;3.08;2.80;;;;;;;27.94;27.62;95482.63;4904983;29;20229;-61
2022/07/17 10:10:00;;;;;;;3.17;2.53;;;;;;;28.07;26.94;95487.66;4962917;28;20227;-61
2022/07/17 10:12:25;;;;;;;2.63;2.42;;;;;;;28.24;27.57;95481.38;4976523;28;20291;-62
2022/07/17 10:14:51;;;;;;;3.67;2.40;;;;;;;28.40;27.04;95490.50;4967925;28;20351;-62
2022/07/17 10:17:21;;;;;;;3.78;3.08;;;;;;;28.41;26.33;95486.72;4977675;28;20228;-62
2022/07/17 10:19:54;;;;;;;5.93;2.95;;;;;;;28.36;26.06;95492.88;4979807;28;20203;-61
2022/07/17 10:22:21;;;;;;;2.80;2.60;;;;;;;28.59;26.05;95478.31;4981755;28;20677;-60
2022/07/17 10:24:56;;;;;;;2.88;2.17;;;;;;;28.67;26.80;95472.44;4984684;28;20228;-61
2022/07/17 10:27:25;;;;;;;6.30;2.55;;;;;;;28.86;25.78;95472.91;4984311;28;20223;-61
2022/07/17 10:30:07;;;;;;;2.83;2.45;;;;;;;28.94;26.33;95468.91;4978920;28;20247;-61
2022/07/17 10:32:33;;;;;;;2.72;2.53;;;;;;;29.03;26.61;95465.50;4985508;28;20227;-61
2022/07/17 10:35:03;;;;;;;2.65;2.45;;;;;;;29.14;26.04;95471.03;4978316;28;20212;-61
2022/07/17 10:37:39;;;;;;;3.10;2.30;;;;;;;29.14;26.01;95463.72;4995836;28;20266;-62
2022/07/17 10:40:15;;;;;;;3.00;2.40;;;;;;;29.10;25.55;95465.31;4962175;28;20229;-62
2022/07/17 10:43:04;;;;;;;2.80;2.38;;;;;;;29.13;25.70;95462.06;4985138;28;20220;-61
2022/07/17 10:45:42;;;;;;;3.42;2.60;;;;;;;28.96;25.80;95456.75;4994257;28;20274;-62
2022/07/17 10:48:28;;;;;;;2.50;2.30;;;;;;;29.18;26.11;95458.59;4985373;28;20235;-63
2022/07/17 10:50:55;;;;;;;2.95;2.75;;;;;;;29.45;25.94;95463.94;4978236;28;20231;-62
2022/07/17 10:53:28;;;;;;;2.78;2.58;;;;;;;29.66;25.54;95449.50;4973990;28;20228;-62
2022/07/17 10:55:55;;;;;;;2.63;2.22;;;;;;;29.61;25.69;95454.84;4974978;28;20230;-61
2022/07/17 10:58:20;;;;;;;2.67;2.40;;;;;;;29.93;24.78;95461.31;4984954;28;20219;-61
2022/07/17 11:01:17;;;;;;;3.42;2.50;;;;;;;30.17;25.70;95458.97;4980928;28;20223;-62
2022/07/17 11:03:52;;;;;;;3.15;2.38;;;;;;;30.21;24.42;95457.41;4957337;28;20246;-62
2022/07/17 11:06:20;;;;;;;2.50;2.30;;;;;;;30.37;23.99;95444.72;4947352;28;20227;-62
2022/07/17 11:08:50;;;;;;;3.20;2.53;;;;;;;30.36;24.03;95454.75;4936131;28;20224;-62
2022/07/17 11:11:19;;;;;;;2.70;2.50;;;;;;;30.51;24.75;95449.38;4945029;28;20260;-62
2022/07/17 11:13:45;;;;;;;3.80;2.47;;;;;;;30.92;24.17;95441.34;4958129;28;20244;-61
2022/07/17 11:16:10;;;;;;;2.92;2.55;;;;;;;31.11;24.43;95449.78;4939284;28;20235;-62
2022/07/17 11:18:36;;;;;;;3.00;2.53;;;;;;;30.63;24.19;95440.97;4949544;28;20220;-62
2022/07/17 11:21:03;;;;;;;2.90;2.60;;;;;;;30.46;24.49;95445.84;4960459;28;20221;-62
2022/07/17 11:23:32;;;;;;;3.50;3.00;;;;;;;30.01;24.87;95434.50;4944973;28;20219;-61
2022/07/17 11:26:04;;;;;;;2.55;2.35;;;;;;;30.46;24.87;95429.56;4958217;28;20215;-62
2022/07/17 11:28:40;;;;;;;2.53;2.33;;;;;;;30.79;24.47;95430.97;4949272;28;20205;-61
2022/07/17 11:31:24;;;;;;;2.72;2.47;;;;;;;30.86;24.42;95430.75;4943616;28;20267;-63
2022/07/17 11:34:00;;;;;;;3.35;2.60;;;;;;;30.77;24.38;95427.72;4952075;28;20232;-61